createdAt,value
2024-03-02T00:01:43.741Z,57.57
2024-03-02T00:04:10.194Z,59.84
2024-03-02T00:06:36.652Z,61.54
2024-03-02T00:09:03.282Z,62.76
2024-03-02T00:11:29.747Z,63.12
2024-03-02T00:13:56.120Z,60.13
2024-03-02T00:16:23.245Z,60.33
2024-03-02T00:18:49.592Z,58.63
2024-03-02T00:21:17.729Z,57.63
2024-03-02T00:23:44.295Z,55.94
2024-03-02T00:26:10.663Z,55.50
2024-03-02T00:28:37.386Z,58.32
2024-03-02T00:31:07.277Z,57.77
2024-03-02T00:33:35.595Z,56.07
2024-03-02T00:36:02.180Z,56.42
2024-03-02T00:38:28.714Z,55.64
2024-03-02T00:40:55.081Z,55.04
2024-03-02T00:43:41.800Z,53.62
2024-03-02T00:46:09.292Z,53.65
2024-03-02T00:48:38.885Z,53.97
2024-03-02T00:51:05.310Z,56.29
2024-03-02T00:53:32.672Z,60.20
2024-03-02T00:55:59.454Z,62.35
2024-03-02T00:58:25.819Z,62.30
2024-03-02T01:00:52.212Z,61.97
2024-03-02T01:03:20.225Z,61.74
2024-03-02T01:05:46.695Z,59.00
2024-03-02T01:08:13.048Z,55.73
2024-03-02T01:10:39.468Z,55.20
2024-03-02T01:13:05.885Z,58.02
2024-03-02T01:15:32.332Z,58.88
2024-03-02T01:17:58.778Z,58.47
2024-03-02T01:20:26.890Z,59.04
2024-03-02T01:22:53.487Z,60.16
2024-03-02T01:25:20.060Z,58.82
2024-03-02T01:27:49.289Z,60.15
2024-03-02T01:30:16.825Z,62.06
2024-03-02T01:32:43.200Z,62.97
2024-03-02T01:35:10.002Z,63.18
2024-03-02T01:37:36.343Z,64.02
2024-03-02T01:40:03.878Z,65.19
2024-03-02T01:42:31.763Z,64.71
2024-03-02T01:44:58.274Z,62.52
2024-03-02T01:47:24.797Z,60.97
2024-03-02T01:49:51.715Z,60.93
2024-03-02T01:52:18.053Z,61.51
2024-03-02T01:54:45.314Z,60.33
2024-03-02T01:57:11.739Z,58.07
2024-03-02T01:59:38.126Z,60.33
2024-03-02T02:02:04.478Z,60.99
2024-03-02T02:04:30.804Z,57.42
2024-03-02T02:06:57.449Z,56.58
2024-03-02T02:09:23.910Z,57.23
2024-03-02T02:11:50.976Z,55.46
2024-03-02T02:14:17.350Z,54.44
2024-03-02T02:16:43.704Z,54.71
2024-03-02T02:19:10.626Z,55.29
2024-03-02T02:21:37.013Z,53.51
2024-03-02T02:24:04.927Z,54.44
2024-03-02T02:26:31.278Z,54.71
2024-03-02T02:28:58.037Z,55.71
2024-03-02T02:31:24.517Z,56.41
2024-03-02T02:33:50.909Z,55.86
2024-03-02T02:36:17.623Z,55.62
2024-03-02T02:38:45.003Z,55.25
2024-03-02T02:41:11.346Z,56.91
2024-03-02T02:43:37.673Z,55.80
2024-03-02T02:46:04.725Z,54.93
2024-03-02T02:48:31.139Z,54.75
2024-03-02T02:50:57.669Z,53.44
2024-03-02T02:53:24.012Z,53.12
2024-03-02T02:55:50.340Z,54.16
2024-03-02T02:58:16.735Z,55.23
2024-03-02T03:00:43.264Z,58.52
2024-03-02T03:03:09.653Z,58.42
2024-03-02T03:05:36.010Z,56.28
2024-03-02T03:08:02.354Z,55.75
2024-03-02T03:10:29.033Z,55.23
2024-03-02T03:12:57.402Z,55.69
2024-03-02T03:15:24.158Z,55.48
2024-03-02T03:17:51.922Z,53.73
2024-03-02T03:20:18.348Z,54.48
2024-03-02T03:22:45.026Z,56.17
2024-03-02T03:25:11.419Z,57.52
2024-03-02T03:27:37.883Z,56.19
2024-03-02T03:30:04.474Z,55.55
2024-03-02T03:32:30.814Z,54.62
2024-03-02T03:34:57.197Z,53.38
2024-03-02T03:37:23.589Z,53.10
2024-03-02T03:39:49.989Z,53.06
2024-03-02T03:42:16.383Z,52.58
2024-03-02T03:44:42.846Z,52.78
2024-03-02T03:47:09.294Z,51.70
2024-03-02T03:49:35.627Z,53.80
2024-03-02T03:52:02.029Z,53.13
2024-03-02T03:54:28.513Z,52.55
2024-03-02T03:56:54.882Z,52.15
2024-03-02T03:59:21.238Z,52.97
2024-03-02T04:01:47.684Z,55.70
2024-03-02T04:04:14.043Z,58.15
2024-03-02T04:06:40.424Z,59.68
2024-03-02T04:09:06.787Z,58.62
2024-03-02T04:11:33.179Z,59.33
2024-03-02T04:13:59.586Z,57.75
2024-03-02T04:16:25.952Z,56.26
2024-03-02T04:18:52.350Z,55.22
2024-03-02T04:21:18.771Z,56.16
2024-03-02T04:23:45.123Z,54.52
2024-03-02T04:26:11.531Z,53.65
2024-03-02T04:28:37.948Z,54.72
2024-03-02T04:31:04.799Z,58.78
2024-03-02T04:33:31.234Z,58.25
2024-03-02T04:35:58.631Z,59.19
2024-03-02T04:38:25.038Z,58.39
2024-03-02T04:40:51.374Z,59.35
2024-03-02T04:43:17.777Z,59.21
2024-03-02T04:45:44.328Z,56.99
2024-03-02T04:48:10.801Z,57.28
2024-03-02T04:50:37.170Z,55.28
2024-03-02T04:53:03.852Z,54.92
2024-03-02T04:55:30.266Z,56.20
2024-03-02T04:57:57.188Z,55.15
2024-03-02T05:00:23.964Z,54.68
2024-03-02T05:02:50.412Z,53.71
2024-03-02T05:05:16.786Z,53.59
2024-03-02T05:07:44.939Z,55.10
2024-03-02T05:10:12.740Z,53.43
2024-03-02T05:12:45.309Z,52.83
2024-03-02T05:15:12.303Z,54.64
2024-03-02T05:17:39.031Z,54.93
2024-03-02T05:20:06.075Z,55.55
2024-03-02T05:22:32.404Z,56.91
2024-03-02T05:25:00.507Z,55.22
2024-03-02T05:27:27.052Z,53.18
2024-03-02T05:29:53.431Z,55.88
2024-03-02T05:32:19.777Z,55.64
2024-03-02T05:34:46.168Z,57.08
2024-03-02T05:37:12.537Z,58.83
2024-03-02T05:39:38.908Z,56.65
2024-03-02T05:42:05.445Z,55.05
2024-03-02T05:44:31.781Z,54.13
2024-03-02T05:46:58.115Z,53.06
2024-03-02T05:49:24.516Z,53.28
2024-03-02T05:51:50.965Z,52.45
2024-03-02T05:54:17.484Z,54.53
2024-03-02T05:56:43.851Z,52.33
2024-03-02T05:59:17.208Z,51.13
2024-03-02T06:01:44.029Z,51.90
2024-03-02T06:04:11.990Z,51.19
2024-03-02T06:06:38.504Z,54.80
2024-03-02T06:09:08.824Z,57.16
2024-03-02T06:11:35.697Z,58.25
2024-03-02T06:14:02.093Z,57.07
2024-03-02T06:16:28.570Z,54.32
2024-03-02T06:18:55.193Z,52.86
2024-03-02T06:21:21.602Z,52.28
2024-03-02T06:23:48.040Z,53.43
2024-03-02T06:26:14.400Z,55.66
2024-03-02T06:28:40.733Z,57.12
2024-03-02T06:31:07.230Z,57.88
2024-03-02T06:33:33.625Z,56.30
2024-03-02T06:36:00.025Z,55.37
2024-03-02T06:38:26.948Z,53.67
2024-03-02T06:40:53.488Z,52.30
2024-03-02T06:43:24.164Z,52.59
2024-03-02T06:45:53.780Z,53.33
2024-03-02T06:48:23.459Z,51.54
2024-03-02T06:50:49.988Z,51.73
2024-03-02T06:53:20.530Z,52.12
2024-03-02T06:55:47.051Z,52.29
2024-03-02T06:58:16.691Z,50.60
2024-03-02T07:00:43.294Z,50.86
2024-03-02T07:03:09.855Z,51.80
2024-03-02T07:05:36.242Z,50.74
2024-03-02T07:08:03.520Z,50.02
2024-03-02T07:10:29.859Z,49.04
2024-03-02T07:12:56.353Z,49.99
2024-03-02T07:15:31.152Z,50.86
2024-03-02T07:17:57.570Z,54.49
2024-03-02T07:20:23.972Z,55.78
2024-03-02T07:22:50.446Z,55.85
2024-03-02T07:27:46.238Z,53.45
2024-03-02T07:30:14.731Z,56.45
2024-03-02T07:32:42.594Z,57.33
2024-03-02T07:35:09.027Z,57.71
2024-03-02T07:37:35.376Z,54.87
2024-03-02T07:40:01.781Z,53.81
2024-03-02T07:42:28.192Z,54.22
2024-03-02T07:44:54.608Z,52.63
2024-03-02T07:47:20.927Z,51.44
2024-03-02T07:49:47.581Z,51.55
2024-03-02T07:52:13.941Z,51.14
2024-03-02T07:54:40.341Z,50.33
2024-03-02T07:57:06.708Z,49.45
2024-03-02T07:59:33.065Z,48.93
2024-03-02T08:01:59.435Z,48.44
2024-03-02T08:04:25.792Z,48.40
2024-03-02T08:06:52.221Z,48.64
2024-03-02T08:09:18.665Z,50.53
2024-03-02T08:11:45.159Z,50.32
2024-03-02T08:14:11.763Z,49.19
2024-03-02T08:16:38.152Z,48.43
2024-03-02T08:19:04.869Z,49.18
2024-03-02T08:21:33.139Z,48.95
2024-03-02T08:23:59.607Z,47.79
2024-03-02T08:26:26.149Z,47.71
2024-03-02T08:28:52.526Z,47.80
2024-03-02T08:31:18.907Z,47.76
2024-03-02T08:33:45.302Z,46.87
2024-03-02T08:36:11.687Z,46.33
2024-03-02T08:38:38.025Z,46.53
2024-03-02T08:41:04.786Z,46.60
2024-03-02T08:43:31.165Z,48.03
2024-03-02T08:45:57.508Z,51.88
2024-03-02T08:48:23.952Z,50.55
2024-03-02T08:50:50.330Z,51.58
2024-03-02T08:53:19.896Z,51.90
2024-03-02T08:55:49.235Z,52.06
2024-03-02T08:58:15.569Z,53.26
2024-03-02T09:00:42.049Z,52.62
2024-03-02T09:03:08.547Z,52.83
2024-03-02T09:05:34.915Z,48.76
2024-03-02T09:08:01.327Z,49.40
2024-03-02T09:10:28.955Z,48.25
2024-03-02T09:12:55.452Z,47.43
2024-03-02T09:15:22.143Z,48.96
2024-03-02T09:17:48.584Z,46.34
2024-03-02T09:20:15.132Z,47.27
2024-03-02T09:22:42.585Z,51.91
2024-03-02T09:25:09.728Z,49.91
2024-03-02T09:27:39.359Z,50.89
2024-03-02T09:30:06.704Z,50.26
2024-03-02T09:32:33.080Z,50.29
2024-03-02T09:34:59.473Z,49.80
2024-03-02T09:37:25.845Z,50.24
2024-03-02T09:39:53.309Z,48.68
2024-03-02T09:42:21.097Z,48.56
2024-03-02T09:44:48.792Z,49.30
2024-03-02T09:47:15.191Z,52.31
2024-03-02T09:49:41.535Z,54.21
2024-03-02T09:52:08.068Z,55.25
2024-03-02T09:54:34.461Z,55.85
2024-03-02T09:57:02.709Z,55.21
2024-03-02T09:59:30.120Z,55.52
2024-03-02T10:01:57.361Z,56.43
2024-03-02T10:04:24.461Z,55.00
2024-03-02T10:06:51.570Z,56.58
2024-03-02T10:09:27.778Z,55.71
2024-03-02T10:11:54.150Z,54.28
2024-03-02T10:14:20.527Z,53.08
2024-03-02T10:16:47.876Z,53.62
2024-03-02T10:19:23.744Z,53.37
2024-03-02T10:21:50.650Z,51.93
2024-03-02T10:24:17.433Z,48.62
2024-03-02T10:26:44.006Z,47.05
2024-03-02T10:29:11.412Z,46.29
2024-03-02T10:31:38.309Z,52.55
2024-03-02T10:34:04.831Z,55.23
2024-03-02T10:36:31.237Z,55.18
2024-03-02T10:38:57.709Z,56.39
2024-03-02T10:41:24.348Z,55.73
2024-03-02T10:43:52.369Z,54.36
2024-03-02T10:46:20.485Z,51.60
2024-03-02T10:48:46.973Z,48.57
2024-03-02T10:51:13.340Z,46.81
2024-03-02T10:53:39.693Z,46.91
2024-03-02T10:56:06.252Z,45.33
2024-03-02T10:58:33.038Z,44.84
2024-03-02T11:01:00.181Z,49.21
2024-03-02T11:03:26.581Z,51.94
2024-03-02T11:05:52.931Z,51.29
2024-03-02T11:08:20.387Z,49.19
2024-03-02T11:10:49.502Z,49.04
2024-03-02T11:13:15.871Z,50.44
2024-03-02T11:15:43.195Z,51.13
2024-03-02T11:18:10.034Z,49.75
2024-03-02T11:20:40.182Z,48.70
2024-03-02T11:23:07.781Z,48.50
2024-03-02T11:25:34.151Z,48.62
2024-03-02T11:28:00.765Z,50.08
2024-03-02T11:30:33.205Z,48.86
2024-03-02T11:32:59.939Z,48.05
2024-03-02T11:35:26.628Z,47.14
2024-03-02T11:37:53.127Z,45.49
2024-03-02T11:40:25.780Z,46.24
2024-03-02T11:42:52.195Z,46.08
2024-03-02T11:45:18.696Z,43.86
2024-03-02T11:47:50.782Z,44.71
2024-03-02T11:50:17.176Z,44.79
2024-03-02T11:52:43.523Z,45.02
2024-03-02T11:55:10.654Z,43.75
2024-03-02T11:57:37.144Z,45.85
2024-03-02T12:00:04.734Z,46.24
2024-03-02T12:02:31.115Z,46.06
2024-03-02T12:04:57.465Z,45.49
2024-03-02T12:07:24.527Z,46.54
2024-03-02T12:10:00.504Z,45.73
2024-03-02T12:12:27.824Z,45.11
2024-03-02T12:14:56.356Z,46.06
2024-03-02T12:17:22.953Z,46.67
2024-03-02T12:19:49.406Z,43.97
2024-03-02T12:22:16.928Z,44.71
2024-03-02T12:24:46.261Z,45.41
2024-03-02T12:27:16.041Z,45.78
2024-03-02T12:29:42.410Z,44.47
2024-03-02T12:32:08.838Z,44.52
2024-03-02T12:34:35.288Z,42.05
2024-03-02T12:37:01.830Z,41.67
2024-03-02T12:39:28.301Z,40.08
2024-03-02T12:41:55.573Z,38.08
2024-03-02T12:44:21.925Z,38.70
2024-03-02T12:46:48.320Z,41.15
2024-03-02T12:49:16.905Z,41.07
2024-03-02T12:51:43.522Z,39.98
2024-03-02T12:54:10.537Z,39.68
2024-03-02T12:56:37.173Z,40.50
2024-03-02T12:59:03.571Z,41.39
2024-03-02T13:01:30.106Z,43.82
2024-03-02T13:03:57.340Z,42.36
2024-03-02T13:06:24.024Z,41.75
2024-03-02T13:08:50.405Z,42.50
2024-03-02T13:11:16.984Z,40.41
2024-03-02T13:13:43.479Z,40.77
2024-03-02T13:16:11.141Z,39.29
2024-03-02T13:18:38.010Z,40.20
2024-03-02T13:21:04.552Z,38.71
2024-03-02T13:23:33.692Z,41.29
2024-03-02T13:26:00.060Z,41.48
2024-03-02T13:28:26.605Z,40.62
2024-03-02T13:30:52.948Z,41.68
2024-03-02T13:33:25.432Z,42.54
2024-03-02T13:35:52.025Z,42.51
2024-03-02T13:38:18.920Z,41.70
2024-03-02T13:40:45.424Z,41.45
2024-03-02T13:43:12.870Z,41.96
2024-03-02T13:45:39.694Z,42.74
2024-03-02T13:48:06.286Z,42.71
2024-03-02T13:50:32.760Z,42.57
2024-03-02T13:52:59.131Z,42.64
2024-03-02T13:55:25.459Z,43.55
2024-03-02T13:57:51.828Z,43.55
2024-03-02T14:00:18.690Z,44.14
2024-03-02T14:02:45.035Z,41.60
2024-03-02T14:05:14.935Z,42.09
2024-03-02T14:07:45.243Z,41.10
2024-03-02T14:10:11.909Z,41.11
2024-03-02T14:12:38.518Z,42.29
2024-03-02T14:15:05.136Z,41.75
2024-03-02T14:17:34.523Z,42.01
2024-03-02T14:20:00.974Z,40.78
2024-03-02T14:22:27.346Z,39.16
2024-03-02T14:24:53.704Z,39.79
2024-03-02T14:27:28.367Z,40.20
2024-03-02T14:30:06.460Z,40.74
2024-03-02T14:32:32.882Z,42.05
2024-03-02T14:34:59.224Z,42.78
2024-03-02T14:37:25.927Z,42.75
2024-03-02T14:39:52.440Z,43.39
2024-03-02T14:42:18.888Z,42.85
2024-03-02T14:44:45.308Z,41.17
2024-03-02T14:47:11.698Z,40.27
2024-03-02T14:49:41.292Z,39.97
2024-03-02T14:52:08.577Z,40.30
2024-03-02T14:54:36.421Z,40.67
2024-03-02T14:57:03.818Z,41.33
2024-03-02T14:59:30.899Z,41.55
2024-03-02T15:01:57.447Z,39.95
2024-03-02T15:04:24.023Z,38.21
2024-03-02T15:06:50.443Z,37.47
2024-03-02T15:09:19.491Z,35.95
2024-03-02T15:11:45.885Z,36.72
2024-03-02T15:14:12.393Z,37.69
2024-03-02T15:16:38.730Z,38.85
2024-03-02T15:19:05.130Z,38.07
2024-03-02T15:21:31.548Z,39.12
2024-03-02T15:23:57.933Z,40.37
2024-03-02T15:26:24.340Z,41.40
2024-03-02T15:28:50.748Z,42.04
2024-03-02T15:31:18.481Z,42.13
2024-03-02T15:33:45.458Z,41.93
2024-03-02T15:36:12.015Z,41.25
2024-03-02T15:38:42.447Z,40.90
2024-03-02T15:41:09.407Z,41.70
2024-03-02T15:43:37.158Z,41.22
2024-03-02T15:46:03.707Z,41.84
2024-03-02T15:48:30.211Z,41.49
2024-03-02T15:50:57.556Z,42.25
2024-03-02T15:53:24.045Z,42.48
2024-03-02T15:55:50.452Z,43.59
2024-03-02T15:58:16.788Z,43.09
2024-03-02T16:00:43.723Z,42.45
2024-03-02T16:03:10.097Z,42.48
2024-03-02T16:05:36.512Z,40.83
2024-03-02T16:08:02.922Z,40.60
2024-03-02T16:10:29.318Z,40.64
2024-03-02T16:12:56.896Z,40.83
2024-03-02T16:15:23.336Z,39.20
2024-03-02T16:17:49.785Z,38.68
2024-03-02T16:20:16.166Z,39.09
2024-03-02T16:22:42.550Z,37.45
2024-03-02T16:25:09.049Z,38.40
2024-03-02T16:27:35.469Z,40.87
2024-03-02T16:30:01.857Z,43.41
2024-03-02T16:32:28.288Z,43.91
2024-03-02T16:34:54.962Z,42.33
2024-03-02T16:37:21.524Z,41.86
2024-03-02T16:39:49.510Z,43.10
2024-03-02T16:42:16.100Z,43.99
2024-03-02T16:44:42.464Z,43.92
2024-03-02T16:47:09.869Z,42.53
2024-03-02T16:49:37.777Z,41.57
2024-03-02T16:52:04.415Z,40.12
2024-03-02T16:54:30.873Z,40.44
2024-03-02T16:56:57.305Z,40.99
2024-03-02T16:59:23.665Z,41.35
2024-03-02T17:01:50.029Z,42.76
2024-03-02T17:04:16.441Z,44.70
2024-03-02T17:06:42.887Z,46.80
2024-03-02T17:09:09.251Z,46.67
2024-03-02T17:11:36.062Z,45.92
2024-03-02T17:14:04.321Z,45.37
2024-03-02T17:16:31.003Z,43.44
2024-03-02T17:18:57.429Z,44.71
2024-03-02T17:21:24.206Z,44.45
2024-03-02T17:23:50.590Z,43.48
2024-03-02T17:26:17.093Z,44.08
2024-03-02T17:28:43.458Z,44.70
2024-03-02T17:31:10.082Z,44.77
2024-03-02T17:33:36.640Z,45.25
2024-03-02T17:36:04.885Z,44.61
2024-03-02T17:38:31.246Z,45.07
2024-03-02T17:40:58.088Z,46.01
2024-03-02T17:43:24.430Z,44.09
2024-03-02T17:45:50.776Z,45.52
2024-03-02T17:48:18.154Z,44.91
2024-03-02T17:50:44.514Z,44.53
2024-03-02T17:53:10.852Z,44.91
2024-03-02T17:55:38.258Z,45.31
2024-03-02T17:58:04.751Z,45.46
2024-03-02T18:00:31.198Z,45.77
2024-03-02T18:02:57.606Z,46.22
2024-03-02T18:05:23.949Z,46.14
2024-03-02T18:07:50.408Z,46.51
2024-03-02T18:10:16.900Z,46.01
2024-03-02T18:12:43.310Z,46.48
2024-03-02T18:15:09.878Z,45.39
2024-03-02T18:17:39.162Z,45.98
2024-03-02T18:20:05.930Z,45.58
2024-03-02T18:22:33.156Z,45.19
2024-03-02T18:25:00.128Z,45.79
2024-03-02T18:27:26.661Z,44.15
2024-03-02T18:29:53.045Z,45.21
2024-03-02T18:32:19.404Z,43.53
2024-03-02T18:34:47.821Z,42.79
2024-03-02T18:37:15.833Z,41.53
2024-03-02T18:39:42.348Z,40.95
2024-03-02T18:42:08.889Z,41.85
2024-03-02T18:44:35.226Z,41.37
2024-03-02T18:47:01.576Z,40.63
2024-03-02T18:49:27.909Z,40.80
2024-03-02T18:51:54.983Z,40.52
2024-03-02T18:54:21.477Z,40.05
2024-03-02T18:56:47.866Z,40.10
2024-03-02T18:59:14.225Z,39.92
2024-03-02T19:01:40.716Z,40.91
2024-03-02T19:04:07.350Z,40.90
2024-03-02T19:06:33.887Z,40.08
2024-03-02T19:09:00.276Z,39.81
2024-03-02T19:11:26.922Z,39.72
2024-03-02T19:13:53.457Z,40.59
2024-03-02T19:16:19.924Z,40.61
2024-03-02T19:18:46.370Z,39.56
2024-03-02T19:21:12.792Z,41.56
2024-03-02T19:23:44.071Z,41.60
2024-03-02T19:26:18.424Z,40.02
2024-03-02T19:28:45.299Z,39.49
2024-03-02T19:31:11.654Z,41.39
2024-03-02T19:33:38.082Z,43.25
2024-03-02T19:36:04.750Z,43.63
2024-03-02T19:38:31.341Z,41.84
2024-03-02T19:40:58.423Z,40.26
2024-03-02T19:43:24.797Z,42.42
2024-03-02T19:45:51.188Z,43.42
2024-03-02T19:48:18.389Z,43.64
2024-03-02T19:50:44.816Z,43.06
2024-03-02T19:53:11.267Z,42.94
2024-03-02T19:55:38.860Z,42.14
2024-03-02T19:58:06.058Z,42.50
2024-03-02T20:00:32.465Z,41.64
2024-03-02T20:02:58.850Z,43.37
2024-03-02T20:05:25.432Z,42.56
2024-03-02T20:07:51.773Z,43.23
2024-03-02T20:10:18.325Z,42.97
2024-03-02T20:12:45.206Z,42.76
2024-03-02T20:15:13.451Z,41.12
2024-03-02T20:17:39.913Z,40.40
2024-03-02T20:20:07.669Z,39.83
2024-03-02T20:22:34.025Z,39.47
2024-03-02T20:25:01.528Z,40.84
2024-03-02T20:27:27.943Z,42.36
2024-03-02T20:29:54.274Z,45.03
2024-03-02T20:32:21.010Z,43.68
2024-03-02T20:34:47.410Z,43.92
2024-03-02T20:37:14.219Z,43.93
2024-03-02T20:39:40.716Z,43.94
2024-03-02T20:42:07.102Z,43.79
2024-03-02T20:44:33.464Z,44.26
2024-03-02T20:46:59.902Z,43.92
2024-03-02T20:49:26.830Z,44.33
2024-03-02T20:51:53.262Z,44.61
2024-03-02T20:54:19.614Z,44.05
2024-03-02T20:56:45.973Z,43.69
2024-03-02T20:59:12.316Z,43.84
2024-03-02T21:01:38.678Z,43.71
2024-03-02T21:04:05.112Z,44.89
2024-03-02T21:06:31.470Z,45.14
2024-03-02T21:08:58.382Z,44.75
2024-03-02T21:11:24.877Z,46.13
2024-03-02T21:13:51.279Z,45.20
2024-03-02T21:16:17.785Z,45.86
2024-03-02T21:18:44.278Z,45.72
2024-03-02T21:21:11.680Z,45.86
2024-03-02T21:23:38.911Z,46.57
2024-03-02T21:26:05.426Z,46.27
2024-03-02T21:28:31.830Z,46.64
2024-03-02T21:30:58.281Z,46.66
2024-03-02T21:33:27.189Z,45.91
2024-03-02T21:35:53.550Z,44.70
2024-03-02T21:38:19.895Z,45.92
2024-03-02T21:40:46.277Z,46.75
2024-03-02T21:43:12.641Z,47.12
2024-03-02T21:45:39.000Z,48.61
2024-03-02T21:48:05.790Z,48.07
2024-03-02T21:50:32.258Z,46.58
2024-03-02T21:52:59.691Z,46.55
2024-03-02T21:55:26.230Z,47.33
2024-03-02T21:57:55.258Z,48.16
2024-03-02T22:00:21.662Z,47.57
2024-03-02T22:02:48.008Z,48.51
2024-03-02T22:05:14.450Z,48.56
2024-03-02T22:07:40.814Z,49.64
2024-03-02T22:10:07.548Z,49.43
2024-03-02T22:12:33.963Z,50.01
2024-03-02T22:15:00.380Z,49.63
2024-03-02T22:17:29.279Z,49.98
2024-03-02T22:19:56.000Z,51.13
2024-03-02T22:22:22.442Z,51.58
2024-03-02T22:24:48.838Z,52.01
2024-03-02T22:27:15.208Z,53.08
2024-03-02T22:29:41.719Z,53.95
2024-03-02T22:32:08.168Z,54.00
2024-03-02T22:34:35.503Z,53.50
2024-03-02T22:37:01.874Z,52.76
2024-03-02T22:39:28.312Z,52.09
2024-03-02T22:41:56.040Z,52.00
2024-03-02T22:44:22.471Z,50.48
2024-03-02T22:46:48.858Z,49.40
2024-03-02T22:49:15.400Z,46.97
2024-03-02T22:51:42.045Z,46.88
2024-03-02T22:54:08.430Z,46.43
2024-03-02T22:56:34.842Z,45.73
2024-03-02T22:59:01.994Z,43.29
2024-03-02T23:01:28.539Z,42.83
2024-03-02T23:03:55.035Z,43.80
2024-03-02T23:06:21.568Z,44.49
2024-03-02T23:08:47.994Z,47.03
2024-03-02T23:11:14.490Z,46.57
2024-03-02T23:13:40.838Z,44.07
2024-03-02T23:16:07.211Z,44.40
2024-03-02T23:18:33.635Z,43.23
2024-03-02T23:21:00.029Z,42.09
2024-03-02T23:23:26.374Z,42.62
2024-03-02T23:25:52.746Z,45.69
2024-03-02T23:28:19.154Z,46.50
2024-03-02T23:30:45.596Z,46.39
2024-03-02T23:33:13.320Z,46.59
2024-03-02T23:35:39.684Z,47.63
2024-03-02T23:38:06.109Z,50.46
2024-03-02T23:40:58.505Z,52.95
2024-03-02T23:43:24.887Z,53.76
2024-03-02T23:45:51.281Z,54.51
2024-03-02T23:48:17.629Z,54.00
2024-03-02T23:50:44.043Z,54.45
2024-03-02T23:53:10.422Z,51.78
2024-03-02T23:55:46.950Z,49.34
2024-03-02T23:58:18.657Z,47.43
